Time;durP1;ratioP1;P1;durP2;ratioP2;P2;SDS_P1;SDS_P2;PMS_P1;PMS_P2;Temp;Humidity;BMP_temperature;BMP_pressure;BME280_temperature;BME280_humidity;BME280_pressure;Samples;Min_cycle;Max_cycle;Signal;HPM_P1;HPM_P2
2023/05/16 00:03:23;;;;;;;3.08;1.73;;;;;;;11.76;100.00;97888.22;15288859;19;20006;-41
2023/05/16 00:08:51;;;;;;;3.15;1.88;;;;;;;11.72;100.00;97901.25;15281389;19;20098;-42
2023/05/16 00:14:18;;;;;;;4.82;1.90;;;;;;;11.63;100.00;97898.81;15283839;19;20013;-41
2023/05/16 00:19:43;;;;;;;2.72;2.17;;;;;;;11.54;100.00;97900.72;15284698;19;20462;-41
2023/05/16 00:25:11;;;;;;;2.13;1.92;;;;;;;11.44;100.00;97902.84;15289808;19;20022;-42
2023/05/16 00:30:36;;;;;;;2.70;2.03;;;;;;;11.37;100.00;97916.19;15285320;19;20603;-42
2023/05/16 00:36:00;;;;;;;2.33;2.13;;;;;;;11.28;100.00;97928.06;15313641;19;20020;-41
2023/05/16 00:41:28;;;;;;;3.05;2.05;;;;;;;11.21;100.00;97930.63;15306446;19;20422;-41
2023/05/16 00:46:53;;;;;;;3.78;2.15;;;;;;;11.12;100.00;97937.06;15311412;19;20082;-41
2023/05/16 00:52:18;;;;;;;2.88;2.10;;;;;;;11.01;100.00;97933.75;15311517;19;20367;-41
2023/05/16 00:57:48;;;;;;;2.33;2.08;;;;;;;10.92;100.00;97932.13;15319162;19;20025;-41
2023/05/16 01:03:16;;;;;;;3.00;2.30;;;;;;;10.88;100.00;97931.63;15318585;19;20485;-41
2023/05/16 01:08:43;;;;;;;2.17;1.98;;;;;;;10.85;100.00;97931.97;15313869;19;20011;-41
2023/05/16 01:14:17;;;;;;;2.40;2.20;;;;;;;10.80;100.00;97937.06;15303206;19;20359;-41
2023/05/16 01:20:02;;;;;;;2.95;2.40;;;;;;;10.75;100.00;97937.59;15310082;19;20014;-41
2023/05/16 01:25:41;;;;;;;2.35;2.10;;;;;;;10.73;100.00;97946.84;15312511;19;20352;-41
2023/05/16 01:31:08;;;;;;;2.40;2.20;;;;;;;10.69;100.00;97951.75;15306841;19;20065;-41
2023/05/16 01:36:45;;;;;;;2.53;2.33;;;;;;;10.71;100.00;97955.09;15316528;19;20349;-41
2023/05/16 01:42:16;;;;;;;2.83;2.60;;;;;;;10.72;100.00;97951.41;15321637;19;20472;-41
2023/05/16 01:47:49;;;;;;;2.93;2.70;;;;;;;10.81;100.00;97962.13;15292203;19;20018;-41
2023/05/16 01:53:16;;;;;;;2.40;2.20;;;;;;;10.84;100.00;97970.72;15296690;19;20047;-41
2023/05/16 01:58:42;;;;;;;2.72;2.45;;;;;;;10.89;100.00;97973.75;15297529;19;20021;-41
2023/05/16 02:04:10;;;;;;;2.63;2.13;;;;;;;10.97;100.00;97978.25;15296585;19;20019;-41
2023/05/16 02:09:35;;;;;;;2.90;2.50;;;;;;;11.01;100.00;97982.25;15292980;19;20035;-41
2023/05/16 02:15:00;;;;;;;2.70;2.40;;;;;;;11.02;100.00;97983.94;15291726;19;20054;-41
2023/05/16 02:20:34;;;;;;;2.88;2.53;;;;;;;10.93;100.00;97990.41;15283531;19;20023;-41
2023/05/16 02:25:59;;;;;;;3.15;2.85;;;;;;;10.87;100.00;97991.09;15297734;19;20011;-41
2023/05/16 02:31:33;;;;;;;3.95;2.97;;;;;;;10.78;100.00;97992.97;15287825;19;20025;-41
2023/05/16 02:37:01;;;;;;;4.05;3.30;;;;;;;10.71;100.00;97998.22;15294419;19;20094;-41
2023/05/16 02:42:29;;;;;;;4.33;3.60;;;;;;;10.64;100.00;97998.06;15287223;19;20479;-41
2023/05/16 02:47:54;;;;;;;5.72;3.67;;;;;;;10.58;100.00;98008.69;15285080;19;20014;-41
2023/05/16 02:53:21;;;;;;;7.57;3.78;;;;;;;10.56;100.00;98002.63;15273815;19;20011;-42
2023/05/16 02:58:49;;;;;;;4.72;4.10;;;;;;;10.53;100.00;98011.03;15284752;19;20034;-42
2023/05/16 03:04:13;;;;;;;5.30;4.80;;;;;;;10.21;100.00;98026.19;15293125;19;20011;-43
2023/05/16 03:09:41;;;;;;;7.40;5.22;;;;;;;9.97;100.00;98033.25;15288813;19;20014;-43
2023/05/16 03:15:07;;;;;;;6.20;5.60;;;;;;;9.74;100.00;98038.44;15288983;19;20014;-44
2023/05/16 03:20:32;;;;;;;6.80;6.20;;;;;;;9.63;100.00;98048.53;15285477;19;20489;-43
2023/05/16 03:26:00;;;;;;;7.95;6.50;;;;;;;9.58;100.00;98050.03;15276599;19;20021;-43
2023/05/16 03:31:24;;;;;;;7.95;7.20;;;;;;;9.49;100.00;98066.09;15286620;19;20899;-42
2023/05/16 03:36:51;;;;;;;8.32;7.53;;;;;;;9.46;100.00;98074.53;15285893;19;20028;-41
2023/05/16 03:42:19;;;;;;;8.48;7.68;;;;;;;9.49;100.00;98084.09;15285145;19;20014;-41
2023/05/16 03:47:44;;;;;;;8.75;7.82;;;;;;;9.46;100.00;98090.66;15286825;19;20025;-43
2023/05/16 03:53:10;;;;;;;8.95;8.15;;;;;;;9.43;100.00;98096.34;15283267;19;20082;-42
2023/05/16 03:58:38;;;;;;;9.80;8.80;;;;;;;9.40;100.00;98107.41;15280568;19;20086;-42
2023/05/16 04:04:02;;;;;;;7.72;7.03;;;;;;;9.46;100.00;98109.47;15287759;19;20090;-42
2023/05/16 04:09:27;;;;;;;7.10;6.50;;;;;;;9.50;100.00;98104.63;15285408;19;20014;-41
2023/05/16 04:14:55;;;;;;;7.80;7.03;;;;;;;9.55;100.00;98118.41;15285747;19;20021;-41
2023/05/16 04:20:20;;;;;;;7.68;6.53;;;;;;;9.55;100.00;98116.56;15283919;19;20376;-41
2023/05/16 04:25:44;;;;;;;6.57;5.90;;;;;;;9.54;100.00;98125.63;15272403;19;20021;-42
2023/05/16 04:31:13;;;;;;;6.88;6.15;;;;;;;9.57;100.00;98127.16;15276614;19;20085;-45
2023/05/16 04:36:39;;;;;;;6.20;5.70;;;;;;;9.58;100.00;98136.06;15281604;19;20011;-43
2023/05/16 04:42:04;;;;;;;6.40;5.80;;;;;;;9.56;100.00;98142.47;15288282;19;20074;-45
2023/05/16 04:47:39;;;;;;;6.85;6.25;;;;;;;9.59;100.00;98145.81;15286384;19;20018;-45
2023/05/16 04:53:03;;;;;;;6.38;5.78;;;;;;;9.54;100.00;98152.53;15283925;19;21086;-44
2023/05/16 04:58:28;;;;;;;6.07;5.47;;;;;;;9.43;100.00;98166.25;15281264;19;20054;-46
2023/05/16 05:03:55;;;;;;;5.50;5.00;;;;;;;9.44;100.00;98176.00;15281339;19;20014;-46
2023/05/16 05:09:20;;;;;;;5.40;4.90;;;;;;;9.34;100.00;98181.50;15285051;19;20014;-43
2023/05/16 05:14:45;;;;;;;5.65;5.15;;;;;;;9.27;100.00;98179.59;15283280;19;20802;-45
2023/05/16 05:20:14;;;;;;;5.05;4.60;;;;;;;9.17;100.00;98185.94;15291290;19;20010;-44
2023/05/16 05:25:39;;;;;;;5.28;4.78;;;;;;;9.19;100.00;98197.38;15299132;19;20022;-45
2023/05/16 05:31:04;;;;;;;5.28;4.30;;;;;;;9.23;100.00;98208.66;15294063;19;20074;-45
2023/05/16 05:36:31;;;;;;;5.20;4.70;;;;;;;9.30;100.00;98206.16;15294950;19;20006;-45
2023/05/16 05:41:56;;;;;;;5.57;4.40;;;;;;;9.34;100.00;98210.25;15300348;19;20013;-45
2023/05/16 05:47:20;;;;;;;6.18;4.45;;;;;;;9.37;100.00;98204.53;15297731;19;20788;-44
2023/05/16 05:52:48;;;;;;;4.57;4.18;;;;;;;9.41;100.00;98205.91;15294094;19;20017;-46
2023/05/16 05:58:12;;;;;;;4.95;4.10;;;;;;;9.43;100.00;98220.03;15297854;19;20031;-45
2023/05/16 06:03:37;;;;;;;4.57;4.18;;;;;;;9.45;100.00;98223.41;15288196;19;20022;-46
2023/05/16 06:09:04;;;;;;;6.20;4.05;;;;;;;9.41;100.00;98233.63;15295222;19;20472;-45
2023/05/16 06:14:29;;;;;;;5.00;4.50;;;;;;;9.26;100.00;98240.59;15293271;19;20077;-44
2023/05/16 06:19:53;;;;;;;4.50;4.10;;;;;;;9.29;100.00;98248.31;15296516;19;20089;-45
2023/05/16 06:25:28;;;;;;;4.65;4.00;;;;;;;9.30;100.00;98254.56;15293146;19;20116;-47
2023/05/16 06:30:53;;;;;;;5.32;4.03;;;;;;;9.35;100.00;98252.25;15292829;19;20018;-45
2023/05/16 06:36:18;;;;;;;4.32;3.70;;;;;;;9.44;100.00;98267.44;15280379;19;20034;-43
2023/05/16 06:41:45;;;;;;;4.03;3.60;;;;;;;9.45;100.00;98266.44;15294509;19;20010;-44
2023/05/16 06:47:16;;;;;;;3.72;3.33;;;;;;;9.44;100.00;98272.81;15289072;19;20073;-43
2023/05/16 06:52:40;;;;;;;4.82;3.70;;;;;;;9.46;100.00;98278.88;15292669;19;20021;-46
2023/05/16 06:58:08;;;;;;;5.10;3.40;;;;;;;9.56;100.00;98279.63;15292622;19;20010;-44
2023/05/16 07:03:32;;;;;;;4.38;3.47;;;;;;;9.52;100.00;98290.84;15291826;19;20018;-48
2023/05/16 07:08:57;;;;;;;4.22;3.80;;;;;;;9.55;100.00;98293.19;15281258;19;20089;-43
2023/05/16 07:14:24;;;;;;;3.35;3.05;;;;;;;9.60;100.00;98298.09;15290747;19;20514;-45
2023/05/16 07:19:49;;;;;;;3.60;3.30;;;;;;;9.52;100.00;98291.69;15292026;19;20010;-43
2023/05/16 07:25:20;;;;;;;5.35;3.40;;;;;;;9.56;100.00;98285.00;15288760;19;20618;-45
2023/05/16 07:30:48;;;;;;;3.10;2.90;;;;;;;9.67;100.00;98280.34;15286068;19;20395;-45
2023/05/16 07:36:14;;;;;;;2.90;2.67;;;;;;;9.75;100.00;98279.56;15288531;19;20018;-46
2023/05/16 07:41:38;;;;;;;3.60;2.90;;;;;;;9.84;100.00;98282.13;15278456;19;20017;-43
2023/05/16 07:47:06;;;;;;;3.17;2.88;;;;;;;9.85;100.00;98273.03;15286257;19;20098;-47
2023/05/16 07:52:31;;;;;;;2.80;2.60;;;;;;;9.89;100.00;98270.03;15287228;19;20031;-46
2023/05/16 07:57:57;;;;;;;3.40;2.60;;;;;;;9.96;100.00;98284.53;15285437;19;20042;-46
2023/05/16 08:03:24;;;;;;;2.90;2.60;;;;;;;9.99;100.00;98285.06;15285878;19;20025;-44
2023/05/16 08:08:49;;;;;;;2.47;2.28;;;;;;;10.06;100.00;98295.19;15292425;19;20010;-48
2023/05/16 08:14:14;;;;;;;2.70;2.50;;;;;;;10.09;100.00;98293.00;15278004;19;20006;-43
2023/05/16 08:19:41;;;;;;;3.60;2.28;;;;;;;10.14;100.00;98290.69;15284278;19;20384;-44
2023/05/16 08:25:08;;;;;;;4.13;2.50;;;;;;;10.11;100.00;98285.63;15281300;19;20054;-42
2023/05/16 08:30:32;;;;;;;2.47;2.20;;;;;;;10.07;100.00;98292.31;15285765;19;20025;-44
2023/05/16 08:35:56;;;;;;;2.95;2.50;;;;;;;10.06;100.00;98295.19;15292996;19;20006;-44
2023/05/16 08:41:21;;;;;;;2.50;2.13;;;;;;;10.12;100.00;98298.06;15282424;19;20021;-42
2023/05/16 08:46:49;;;;;;;2.85;2.53;;;;;;;10.13;100.00;98296.22;15276866;19;20375;-41
2023/05/16 08:52:20;;;;;;;2.47;2.28;;;;;;;10.09;100.00;98294.88;15280350;19;20110;-45
2023/05/16 08:57:46;;;;;;;2.60;2.40;;;;;;;10.01;100.00;98306.44;15294668;19;20015;-44
2023/05/16 09:03:11;;;;;;;3.10;2.50;;;;;;;9.89;100.00;98311.22;15293485;19;20011;-44
2023/05/16 09:08:39;;;;;;;2.90;2.55;;;;;;;9.83;100.00;98312.72;15297232;19;20018;-45
2023/05/16 09:14:05;;;;;;;3.35;1.95;;;;;;;9.93;100.00;98317.16;15293340;19;20364;-45
2023/05/16 09:19:31;;;;;;;4.13;2.25;;;;;;;10.03;100.00;98318.72;15287974;19;20010;-45
2023/05/16 09:25:01;;;;;;;2.05;1.95;;;;;;;10.26;100.00;98320.84;15292640;19;20655;-47
2023/05/16 09:30:44;;;;;;;3.70;2.08;;;;;;;10.38;100.00;98325.97;15292526;19;20029;-42
2023/05/16 09:36:09;;;;;;;3.85;2.10;;;;;;;10.50;100.00;98329.22;15289613;19;20045;-42
2023/05/16 09:41:41;;;;;;;2.53;1.90;;;;;;;10.52;100.00;98327.22;15292030;19;20019;-44
2023/05/16 09:47:06;;;;;;;2.20;1.80;;;;;;;10.59;100.00;98337.16;15287907;19;20017;-44
2023/05/16 09:52:31;;;;;;;2.10;1.90;;;;;;;10.70;100.00;98359.44;15282771;19;20023;-43
2023/05/16 09:57:58;;;;;;;2.83;2.00;;;;;;;10.78;100.00;98356.75;15292404;19;20376;-44
2023/05/16 10:03:24;;;;;;;2.45;2.17;;;;;;;10.82;100.00;98355.41;15290305;19;20033;-45
2023/05/16 10:08:49;;;;;;;1.90;1.60;;;;;;;10.74;100.00;98350.00;15293026;19;20014;-43
2023/05/16 10:14:18;;;;;;;1.50;1.15;;;;;;;10.71;100.00;98345.78;15293621;19;20014;-47
2023/05/16 10:19:43;;;;;;;2.70;1.10;;;;;;;10.63;100.00;98351.16;15288226;19;20461;-46
2023/05/16 10:25:16;;;;;;;1.17;0.95;;;;;;;10.70;100.00;98343.25;15285902;19;20368;-84
2023/05/16 10:30:46;;;;;;;2.08;0.90;;;;;;;10.78;100.00;98343.28;15312479;19;20653;-83
2023/05/16 10:36:12;;;;;;;1.07;0.80;;;;;;;10.78;100.00;98354.06;15310428;19;20015;-84
2023/05/16 10:41:37;;;;;;;0.77;0.77;;;;;;;10.70;100.00;98359.44;15314437;19;20018;-83
2023/05/16 10:47:07;;;;;;;1.35;0.70;;;;;;;10.73;100.00;98365.31;15312524;19;20018;-85
2023/05/16 10:52:35;;;;;;;1.35;0.75;;;;;;;10.74;100.00;98372.41;15342968;19;20018;-83
2023/05/16 10:58:00;;;;;;;2.15;0.70;;;;;;;10.81;100.00;98363.66;15308861;19;20037;-84
2023/05/16 11:03:30;;;;;;;2.65;0.75;;;;;;;10.92;100.00;98349.88;15306097;19;20483;-85
2023/05/16 11:09:12;;;;;;;2.23;0.70;;;;;;;10.95;100.00;98355.75;15305174;19;20018;-86
2023/05/16 11:14:41;;;;;;;0.77;0.60;;;;;;;10.94;100.00;98354.06;15306067;19;20025;-84
2023/05/16 11:20:09;;;;;;;2.10;0.90;;;;;;;10.81;100.00;98360.97;15300998;19;20033;-84
2023/05/16 11:25:39;;;;;;;1.27;0.90;;;;;;;10.77;100.00;98366.66;15292919;19;20014;-83
2023/05/16 11:31:07;;;;;;;1.67;1.00;;;;;;;10.80;100.00;98368.22;15305925;19;20054;-83
2023/05/16 11:36:37;;;;;;;2.53;1.15;;;;;;;10.83;100.00;98377.81;15312683;19;20614;-86
2023/05/16 11:42:02;;;;;;;3.53;1.20;;;;;;;10.93;100.00;98365.91;15310427;19;20010;-84
2023/05/16 11:47:28;;;;;;;3.13;1.20;;;;;;;10.87;100.00;98374.63;15316273;19;20009;-84
2023/05/16 11:52:57;;;;;;;2.92;1.00;;;;;;;10.81;100.00;98387.91;15314781;19;20365;-86
2023/05/16 11:58:22;;;;;;;2.28;1.00;;;;;;;10.76;100.00;98383.00;15308441;19;20022;-84
2023/05/16 12:03:50;;;;;;;3.38;0.95;;;;;;;10.65;100.00;98381.44;15327792;19;20020;-84
2023/05/16 12:09:18;;;;;;;3.65;1.20;;;;;;;10.52;100.00;98384.59;15339729;19;20018;-85
2023/05/16 12:14:44;;;;;;;7.68;1.10;;;;;;;10.47;100.00;98400.41;15365409;19;20003;-87
2023/05/16 12:20:15;;;;;;;2.45;1.00;;;;;;;10.40;100.00;98394.84;15348690;19;20014;-84
2023/05/16 12:25:56;;;;;;;2.10;0.90;;;;;;;10.38;100.00;98396.84;15302674;19;20026;-84
2023/05/16 12:31:21;;;;;;;2.72;1.00;;;;;;;10.38;100.00;98398.66;15292500;19;20013;-84
2023/05/16 12:36:49;;;;;;;2.85;0.70;;;;;;;10.41;100.00;98401.06;15303688;19;20074;-83
2023/05/16 12:42:16;;;;;;;2.05;0.90;;;;;;;10.52;100.00;98391.84;15302035;19;20086;-85
2023/05/16 12:47:46;;;;;;;2.55;0.98;;;;;;;10.75;100.00;98392.97;15294937;19;20007;-84
2023/05/16 12:53:14;;;;;;;4.07;0.90;;;;;;;10.96;100.00;98386.28;15302849;19;20365;-83
2023/05/16 12:58:42;;;;;;;3.22;0.90;;;;;;;11.12;100.00;98382.78;15304418;19;20376;-84
2023/05/16 13:04:13;;;;;;;3.17;0.90;;;;;;;11.28;100.00;98381.94;15302782;19;20541;-85
2023/05/16 13:09:37;;;;;;;2.10;0.83;;;;;;;11.36;100.00;98384.63;15330710;19;20011;-84
2023/05/16 13:15:06;;;;;;;2.50;1.00;;;;;;;11.55;100.00;98404.22;15328779;19;20022;-84
2023/05/16 13:20:30;;;;;;;3.22;0.90;;;;;;;11.75;100.00;98396.66;15305377;19;20015;-83
2023/05/16 13:25:56;;;;;;;3.47;0.88;;;;;;;11.84;100.00;98403.72;15308585;19;20020;-83
2023/05/16 13:31:23;;;;;;;1.70;0.80;;;;;;;11.94;100.00;98408.91;15337335;19;20010;-84
2023/05/16 13:48:28;;;;;;;2.13;0.80;;;;;;;13.73;100.00;98394.97;15338862;19;19983;-86
2023/05/16 13:53:55;;;;;;;2.08;1.00;;;;;;;13.93;100.00;98386.34;15336594;19;20014;-85
2023/05/16 13:59:24;;;;;;;3.75;1.00;;;;;;;13.86;100.00;98397.88;15334087;19;21255;-85
2023/05/16 14:05:09;;;;;;;3.78;1.00;;;;;;;13.75;100.00;98387.50;15311409;19;20025;-44
2023/05/16 14:10:36;;;;;;;3.65;1.15;;;;;;;13.63;100.00;98394.38;15271766;19;20558;-43
2023/05/16 14:16:01;;;;;;;3.17;1.10;;;;;;;13.50;100.00;98403.94;15284310;19;20018;-43
2023/05/16 14:21:26;;;;;;;5.15;1.10;;;;;;;13.36;100.00;98401.97;15283731;19;20082;-43
2023/05/16 14:26:54;;;;;;;4.95;1.50;;;;;;;13.38;100.00;98399.94;15283528;19;20014;-44
2023/05/16 14:32:19;;;;;;;4.68;1.17;;;;;;;13.25;100.00;98404.06;15283372;19;20348;-43
2023/05/16 14:37:45;;;;;;;4.35;1.23;;;;;;;13.35;100.00;98409.25;15280236;19;20022;-43
2023/05/16 14:43:12;;;;;;;3.22;1.35;;;;;;;13.29;100.00;98401.84;15277009;19;20014;-43
2023/05/16 14:48:38;;;;;;;4.28;1.38;;;;;;;13.32;100.00;98406.91;15286294;19;20046;-42
2023/05/16 14:54:04;;;;;;;4.53;1.20;;;;;;;13.05;100.00;98408.25;15278831;19;20065;-42
2023/05/16 14:59:31;;;;;;;4.30;1.25;;;;;;;13.05;100.00;98405.56;15285571;19;20097;-43
2023/05/16 15:04:56;;;;;;;4.55;1.15;;;;;;;13.15;100.00;98395.34;15279291;19;20038;-43
2023/05/16 15:10:21;;;;;;;2.78;1.05;;;;;;;13.29;100.00;98398.31;15281320;19;20051;-44
2023/05/16 15:15:49;;;;;;;4.25;1.20;;;;;;;13.43;100.00;98400.28;15276156;19;20014;-43
2023/05/16 15:21:14;;;;;;;2.13;0.80;;;;;;;13.47;100.00;98408.88;15280888;19;20028;-43
2023/05/16 15:26:40;;;;;;;3.72;1.00;;;;;;;13.48;90.74;98399.72;15283428;19;20021;-42
2023/05/16 15:32:12;;;;;;;3.75;1.10;;;;;;;13.39;88.07;98397.09;15284616;19;20010;-41
2023/05/16 15:37:39;;;;;;;3.05;1.10;;;;;;;13.54;86.05;98390.88;15280191;19;20018;-42
2023/05/16 15:43:03;;;;;;;3.70;1.17;;;;;;;13.77;86.51;98388.16;15277746;19;20028;-43
2023/05/16 15:48:30;;;;;;;3.20;0.90;;;;;;;14.40;82.36;98379.75;15283418;19;20020;-42
2023/05/16 15:53:56;;;;;;;4.13;1.10;;;;;;;14.25;78.08;98376.19;15285762;19;20729;-41
2023/05/16 15:59:21;;;;;;;5.68;1.20;;;;;;;14.14;78.49;98382.91;15284262;19;20016;-43
2023/05/16 16:04:48;;;;;;;2.67;1.00;;;;;;;13.86;84.75;98381.63;15283465;19;20014;-43
2023/05/16 16:10:20;;;;;;;3.97;1.00;;;;;;;14.11;78.22;98381.41;15284539;19;20018;-45
2023/05/16 16:15:45;;;;;;;3.25;1.00;;;;;;;14.35;75.45;98378.63;15273217;19;20018;-45
2023/05/16 16:21:12;;;;;;;3.53;0.90;;;;;;;15.17;67.77;98376.75;15278903;19;20033;-41
2023/05/16 16:26:37;;;;;;;2.95;1.02;;;;;;;15.27;62.64;98374.56;15265768;19;20020;-47
2023/05/16 16:32:01;;;;;;;3.20;0.90;;;;;;;15.24;65.06;98362.22;15216797;19;20017;-45
2023/05/16 16:37:28;;;;;;;2.15;0.80;;;;;;;15.57;60.47;98364.41;15277093;19;20771;-47
2023/05/16 16:42:54;;;;;;;4.57;0.80;;;;;;;15.49;57.41;98380.84;15278887;19;20014;-45
2023/05/16 16:48:19;;;;;;;1.65;0.70;;;;;;;15.72;56.04;98380.63;15265608;19;20050;-49
2023/05/16 16:53:46;;;;;;;2.95;0.77;;;;;;;15.53;56.61;98392.16;15276568;19;20011;-44
2023/05/16 16:59:11;;;;;;;2.70;1.00;;;;;;;15.26;58.50;98383.72;15275156;19;20472;-48
2023/05/16 17:04:36;;;;;;;3.03;0.80;;;;;;;15.60;57.09;98382.19;15273992;19;20031;-47
2023/05/16 17:10:06;;;;;;;3.28;0.80;;;;;;;15.61;53.83;98397.44;15274878;19;20490;-44
2023/05/16 17:15:32;;;;;;;2.65;0.80;;;;;;;15.82;55.86;98388.44;15281776;19;20011;-47
2023/05/16 17:20:58;;;;;;;2.28;0.75;;;;;;;15.84;53.03;98394.56;15283675;19;20014;-49
2023/05/16 17:26:32;;;;;;;5.15;0.90;;;;;;;15.89;51.36;98404.84;15288452;19;20022;-45
2023/05/16 17:31:57;;;;;;;1.67;0.60;;;;;;;15.60;51.80;98414.75;15293205;19;20077;-47
2023/05/16 17:37:21;;;;;;;3.60;0.73;;;;;;;15.20;51.67;98420.63;15286740;19;20010;-48
2023/05/16 17:42:50;;;;;;;1.08;0.52;;;;;;;14.86;51.67;98418.53;15290583;19;20021;-44
2023/05/16 17:48:15;;;;;;;2.20;0.60;;;;;;;14.49;55.76;98427.41;15284334;19;20023;-47
2023/05/16 17:53:40;;;;;;;4.07;0.70;;;;;;;14.40;55.50;98439.38;15281070;19;20018;-47
2023/05/16 17:59:08;;;;;;;2.15;0.80;;;;;;;14.18;56.60;98441.94;15280577;19;20461;-47
2023/05/16 18:04:40;;;;;;;2.58;0.60;;;;;;;13.83;54.51;98451.56;15285399;19;20025;-46
2023/05/16 18:10:12;;;;;;;2.75;0.90;;;;;;;13.82;56.83;98456.13;15283839;19;20014;-45
2023/05/16 18:15:40;;;;;;;1.52;0.60;;;;;;;13.66;57.99;98456.28;15284546;19;20025;-47
2023/05/16 18:21:05;;;;;;;5.13;2.70;;;;;;;13.50;59.38;98466.19;15287913;19;20027;-48
2023/05/16 18:26:37;;;;;;;1.40;0.60;;;;;;;13.26;59.70;98478.81;15274448;19;20018;-48
2023/05/16 18:32:04;;;;;;;2.30;0.73;;;;;;;12.94;58.07;98482.50;15285945;19;20423;-47
2023/05/16 18:37:30;;;;;;;1.75;0.50;;;;;;;12.52;58.72;98489.91;15280698;19;20022;-47
2023/05/16 18:42:56;;;;;;;2.38;0.70;;;;;;;12.22;60.60;98489.59;15286679;19;20017;-45
2023/05/16 18:48:23;;;;;;;2.75;0.80;;;;;;;11.91;62.75;98501.06;15287007;19;20011;-44
2023/05/16 18:53:52;;;;;;;2.00;0.70;;;;;;;11.67;64.32;98504.56;15285233;19;20018;-45
2023/05/16 18:59:17;;;;;;;1.98;0.90;;;;;;;11.51;67.62;98514.34;15272317;19;20018;-50
2023/05/16 19:04:44;;;;;;;5.28;0.90;;;;;;;11.28;74.75;98532.97;15282267;19;20021;-44
2023/05/16 19:10:09;;;;;;;3.42;0.80;;;;;;;11.10;83.82;98533.94;15285697;19;20016;-46
2023/05/16 19:15:34;;;;;;;1.73;0.90;;;;;;;10.92;92.09;98538.53;15281154;19;20395;-46
2023/05/16 19:21:01;;;;;;;5.60;1.30;;;;;;;10.78;94.82;98548.91;15281613;19;20026;-48
2023/05/16 19:26:32;;;;;;;2.97;0.80;;;;;;;10.57;100.00;98560.09;15280854;19;20356;-46
2023/05/16 19:31:57;;;;;;;2.40;0.95;;;;;;;10.37;100.00;98572.00;15277323;19;20077;-46
2023/05/16 19:37:24;;;;;;;2.35;0.90;;;;;;;10.23;100.00;98578.78;15277911;19;20014;-45
2023/05/16 19:42:49;;;;;;;3.20;0.73;;;;;;;10.10;100.00;98574.66;15282376;19;20090;-44
2023/05/16 19:48:14;;;;;;;4.18;0.90;;;;;;;9.98;100.00;98583.97;15277953;19;20038;-45
2023/05/16 19:53:44;;;;;;;2.78;0.90;;;;;;;9.87;100.00;98593.94;15277049;19;20393;-45
2023/05/16 19:59:09;;;;;;;2.78;0.80;;;;;;;9.78;100.00;98592.19;15276349;19;20032;-46
2023/05/16 20:04:35;;;;;;;3.17;1.13;;;;;;;9.72;100.00;98584.69;15271115;19;20589;-45
2023/05/16 20:10:02;;;;;;;2.10;0.70;;;;;;;9.65;100.00;98594.38;15280674;19;20011;-45
2023/05/16 20:15:27;;;;;;;3.13;0.93;;;;;;;9.65;100.00;98599.75;15274832;19;20353;-44
2023/05/16 20:20:51;;;;;;;1.83;0.90;;;;;;;9.59;100.00;98603.03;15281797;19;20023;-46
2023/05/16 20:26:18;;;;;;;2.58;1.00;;;;;;;9.53;100.00;98601.81;15278949;19;20407;-47
2023/05/16 20:31:44;;;;;;;2.03;0.65;;;;;;;9.50;100.00;98618.25;15279406;19;20040;-44
2023/05/16 20:37:09;;;;;;;3.75;0.73;;;;;;;9.40;100.00;98629.06;15272089;19;20350;-45
2023/05/16 20:42:36;;;;;;;3.10;0.80;;;;;;;9.38;100.00;98625.66;15280759;19;20073;-45
2023/05/16 20:48:01;;;;;;;2.90;0.90;;;;;;;9.34;100.00;98624.28;15279414;19;20015;-44
2023/05/16 20:53:25;;;;;;;3.08;0.75;;;;;;;9.30;100.00;98633.63;15297174;19;20033;-44
2023/05/16 20:58:53;;;;;;;4.82;0.80;;;;;;;9.22;100.00;98640.59;15294270;19;20014;-44
2023/05/16 21:04:17;;;;;;;1.77;0.60;;;;;;;9.10;100.00;98634.53;15294570;19;20029;-45
2023/05/16 21:09:42;;;;;;;4.60;0.80;;;;;;;9.08;100.00;98631.16;15291106;19;20045;-44
2023/05/16 21:15:10;;;;;;;2.63;0.93;;;;;;;8.91;100.00;98635.44;15291735;19;20451;-48
2023/05/16 21:20:35;;;;;;;2.35;0.80;;;;;;;8.89;100.00;98629.38;15285598;19;20017;-48
2023/05/16 21:26:06;;;;;;;2.95;0.90;;;;;;;8.79;100.00;98629.41;15292483;19;20025;-46
2023/05/16 21:31:33;;;;;;;3.43;0.80;;;;;;;8.73;100.00;98640.72;15295147;19;20081;-45
2023/05/16 21:37:00;;;;;;;1.80;0.70;;;;;;;8.67;100.00;98643.13;15293014;19;20494;-43
2023/05/16 21:42:26;;;;;;;3.65;0.80;;;;;;;8.54;100.00;98641.59;15290875;19;20084;-44
2023/05/16 21:47:54;;;;;;;2.95;0.90;;;;;;;8.44;100.00;98638.91;15289395;19;20047;-44
2023/05/16 21:53:22;;;;;;;2.22;0.93;;;;;;;8.34;100.00;98632.69;15290055;19;20025;-44
2023/05/16 21:58:51;;;;;;;5.03;1.00;;;;;;;8.30;100.00;98648.22;15291572;19;20035;-46
2023/05/16 22:04:19;;;;;;;2.42;0.80;;;;;;;8.21;100.00;98654.44;15288147;19;20011;-46
2023/05/16 22:09:44;;;;;;;3.13;0.80;;;;;;;8.09;100.00;98653.72;15288991;19;20360;-45
2023/05/16 22:15:10;;;;;;;3.05;0.80;;;;;;;8.01;100.00;98659.78;15289689;19;20014;-46
2023/05/16 22:20:37;;;;;;;3.00;0.82;;;;;;;8.04;100.00;98655.97;15287881;19;20078;-44
2023/05/16 22:26:02;;;;;;;2.55;0.60;;;;;;;7.94;100.00;98658.63;15289546;19;20017;-44
2023/05/16 22:31:26;;;;;;;4.80;0.93;;;;;;;7.96;100.00;98656.66;15287569;19;20042;-45
2023/05/16 22:36:53;;;;;;;1.90;0.70;;;;;;;7.93;100.00;98662.31;15286952;19;20028;-45
2023/05/16 22:42:18;;;;;;;2.88;0.80;;;;;;;7.93;100.00;98678.41;14767767;19;10000029;-45
2023/05/16 22:47:43;;;;;;;4.47;0.88;;;;;;;7.90;100.00;98673.31;15285363;19;20482;-46
2023/05/16 22:53:10;;;;;;;2.70;1.00;;;;;;;7.96;100.00;98682.66;15287858;19;20340;-43
2023/05/16 22:58:36;;;;;;;4.60;0.77;;;;;;;7.95;100.00;98678.28;15285982;19;20019;-45
2023/05/16 23:04:00;;;;;;;2.65;0.80;;;;;;;7.94;100.00;98682.78;15287083;19;20386;-45
2023/05/16 23:09:27;;;;;;;3.70;0.95;;;;;;;7.89;100.00;98679.66;15286786;19;20018;-44
2023/05/16 23:14:52;;;;;;;2.72;0.90;;;;;;;7.81;100.00;98680.34;15275406;19;20024;-44
2023/05/16 23:20:17;;;;;;;2.15;0.77;;;;;;;7.67;100.00;98689.66;15283351;19;20018;-44
2023/05/16 23:25:45;;;;;;;2.85;0.80;;;;;;;7.59;100.00;98686.78;15283286;19;20030;-44
2023/05/16 23:31:10;;;;;;;3.22;0.80;;;;;;;7.46;100.00;98696.91;15285286;19;20019;-45
2023/05/16 23:36:34;;;;;;;1.60;0.80;;;;;;;7.34;100.00;98699.69;15284012;19;20014;-43
2023/05/16 23:42:02;;;;;;;2.10;0.85;;;;;;;7.33;100.00;98718.56;15284141;19;20373;-45
2023/05/16 23:47:26;;;;;;;2.88;1.00;;;;;;;7.33;100.00;98710.50;15272967;19;20021;-45
2023/05/16 23:52:51;;;;;;;2.97;0.90;;;;;;;7.29;100.00;98717.97;15284932;19;20017;-45
2023/05/16 23:58:18;;;;;;;3.33;1.10;;;;;;;7.25;100.00;98716.53;15280038;19;20022;-45
